Boswell, IN (47921)

6:56 PM EDT on May 30, 2015 (GMT -0400)
Oxford | | Change Station
CLOSE
Current Station
Personal Weather Station
Location: Oxford, IN
Elevation: 732 ft
Nearby Weather Stations

Elev 732 ft 40.52 °N, 87.24 °W | Updated 5 minutes ago

Overcast
Overcast
60.6 °F
Feels Like 60.6 °F
N
4.9
Wind Variable Wind from North

Today
High -- | Low -- °F
--% Chance of Precip.
Yesterday
High -- | Low -- °F
Precip. -- in
6:22 AM 9:12 PM
Waxing Gibbous, 92% visible
Pressure 29.91 in
Visibility 10.0 miles
Clouds Mostly Cloudy 1300 ft
Mostly Cloudy 8500 ft
Dew Point 57 °F
Humidity 87%
Rainfall 0.61 in
Snow Depth Not available.
UV 1 out of 12
Pollen 1.80 out of 12
Air Quality Not available.
Flu Activity No Activity
SPECI KLAF 302252Z 00000KT 10SM BKN013 BKN085 22/19 A2991 RMK AO2 RAE2157 P0000

More Conditions Fewer Conditions

Pressure 29.91 in
Visibility 10.0 miles
Clouds Mostly Cloudy 1300 ft
Mostly Cloudy 8500 ft
Dew Point 57 °F
Humidity 87%
Rainfall 0.61 in
Snow Depth Not available.
UV 1 out of 12
Pollen 1.80 out of 12
Air Quality Not available.
Flu Activity No Activity
SPECI KLAF 302252Z 00000KT 10SM BKN013 BKN085 22/19 A2991 RMK AO2 RAE2157 P0000

More Conditions Fewer Conditions

10-Day Weather Forecast

Almanac

Astronomy

May. 30, 2015 Rise Set
Actual Time
Civil Twilight
Nautical Twilight
Astronomical Twilight
Moon
Length of Visible Light
Length of Day
Tomorrow will be .
, % of the Moon is Illuminated

Today's Extremes

State Highs State Lows

Community

WunderPhotos

Upload Photos

1,825,609 photos uploaded!

WunderBlogs® & News

Nearby

Air Quality

  Air Quality AQ Index Pollutant
Not available.

Snow Depth

Station Depth Elevation

Earthquake Activity

City Distance Mag. Time & Date
Minimum magnitude displayed is 2.5.

Coastal Water Temperatures

Place Temperature

Stations

Nearby Weather Stations

Station Location Temp. Windchill Dew Point Humidity Wind Precip. Elev Updated Type